sensor_id;sensor_type;location;lat;lon;timestamp;temperature;humidity
65058;HTU21D;51644;51.068;5.860;2023-02-21T00:00:46;9.70;83.97
65058;HTU21D;51644;51.068;5.860;2023-02-21T00:02:03;9.71;83.99
65058;HTU21D;51644;51.068;5.860;2023-02-21T00:03:20;9.72;83.96
65058;HTU21D;51644;51.068;5.860;2023-02-21T00:04:37;9.74;83.91
65058;HTU21D;51644;51.068;5.860;2023-02-21T00:05:55;9.77;83.68
65058;HTU21D;51644;51.068;5.860;2023-02-21T00:07:12;9.75;83.78
65058;HTU21D;51644;51.068;5.860;2023-02-21T00:08:29;9.76;83.77
65058;HTU21D;51644;51.068;5.860;2023-02-21T00:09:50;9.78;83.71
65058;HTU21D;51644;51.068;5.860;2023-02-21T00:11:13;9.80;83.76
65058;HTU21D;51644;51.068;5.860;2023-02-21T00:12:30;9.81;83.74
65058;HTU21D;51644;51.068;5.860;2023-02-21T00:13:47;9.82;83.65
65058;HTU21D;51644;51.068;5.860;2023-02-21T00:15:05;9.84;83.64
65058;HTU21D;51644;51.068;5.860;2023-02-21T00:16:23;9.86;83.58
65058;HTU21D;51644;51.068;5.860;2023-02-21T00:17:40;9.88;83.46
65058;HTU21D;51644;51.068;5.860;2023-02-21T00:18:59;9.88;83.42
65058;HTU21D;51644;51.068;5.860;2023-02-21T00:20:29;9.89;83.34
65058;HTU21D;51644;51.068;5.860;2023-02-21T00:21:46;9.88;83.34
65058;HTU21D;51644;51.068;5.860;2023-02-21T00:23:03;9.89;83.34
65058;HTU21D;51644;51.068;5.860;2023-02-21T00:24:21;9.90;83.29
65058;HTU21D;51644;51.068;5.860;2023-02-21T00:25:38;9.89;83.32
65058;HTU21D;51644;51.068;5.860;2023-02-21T00:26:56;9.91;83.32
65058;HTU21D;51644;51.068;5.860;2023-02-21T00:28:13;9.92;83.19
65058;HTU21D;51644;51.068;5.860;2023-02-21T00:29:31;9.94;83.19
65058;HTU21D;51644;51.068;5.860;2023-02-21T00:30:48;9.96;83.19
65058;HTU21D;51644;51.068;5.860;2023-02-21T00:32:06;9.95;83.17
65058;HTU21D;51644;51.068;5.860;2023-02-21T00:33:23;9.94;83.13
65058;HTU21D;51644;51.068;5.860;2023-02-21T00:34:40;9.92;83.18
65058;HTU21D;51644;51.068;5.860;2023-02-21T00:35:58;9.91;83.22
65058;HTU21D;51644;51.068;5.860;2023-02-21T00:37:15;9.92;83.20
65058;HTU21D;51644;51.068;5.860;2023-02-21T00:38:32;9.88;83.28
65058;HTU21D;51644;51.068;5.860;2023-02-21T00:39:55;9.86;83.34
65058;HTU21D;51644;51.068;5.860;2023-02-21T00:41:13;9.85;83.37
65058;HTU21D;51644;51.068;5.860;2023-02-21T00:42:30;9.82;83.46
65058;HTU21D;51644;51.068;5.860;2023-02-21T00:43:48;9.82;83.51
65058;HTU21D;51644;51.068;5.860;2023-02-21T00:45:06;9.83;83.52
65058;HTU21D;51644;51.068;5.860;2023-02-21T00:46:23;9.86;83.49
65058;HTU21D;51644;51.068;5.860;2023-02-21T00:47:40;9.86;83.46
65058;HTU21D;51644;51.068;5.860;2023-02-21T00:48:57;9.82;83.49
65058;HTU21D;51644;51.068;5.860;2023-02-21T00:50:14;9.83;83.46
65058;HTU21D;51644;51.068;5.860;2023-02-21T00:51:31;9.82;83.52
65058;HTU21D;51644;51.068;5.860;2023-02-21T00:52:49;9.82;83.55
65058;HTU21D;51644;51.068;5.860;2023-02-21T00:54:06;9.83;83.52
65058;HTU21D;51644;51.068;5.860;2023-02-21T00:55:26;9.84;83.52
65058;HTU21D;51644;51.068;5.860;2023-02-21T00:56:44;9.84;83.54
65058;HTU21D;51644;51.068;5.860;2023-02-21T00:58:01;9.81;83.71
65058;HTU21D;51644;51.068;5.860;2023-02-21T00:59:21;9.79;83.67
65058;HTU21D;51644;51.068;5.860;2023-02-21T01:00:52;9.75;83.79
65058;HTU21D;51644;51.068;5.860;2023-02-21T01:02:12;9.69;83.89
65058;HTU21D;51644;51.068;5.860;2023-02-21T01:03:32;9.67;84.14
65058;HTU21D;51644;51.068;5.860;2023-02-21T01:04:52;9.64;84.16
65058;HTU21D;51644;51.068;5.860;2023-02-21T01:06:11;9.66;84.18
65058;HTU21D;51644;51.068;5.860;2023-02-21T01:07:31;9.66;84.17
65058;HTU21D;51644;51.068;5.860;2023-02-21T01:08:51;9.64;84.26
65058;HTU21D;51644;51.068;5.860;2023-02-21T01:10:09;9.60;84.27
65058;HTU21D;51644;51.068;5.860;2023-02-21T01:11:42;9.59;84.32
65058;HTU21D;51644;51.068;5.860;2023-02-21T01:13:00;9.60;84.40
65058;HTU21D;51644;51.068;5.860;2023-02-21T01:14:20;9.60;84.39
65058;HTU21D;51644;51.068;5.860;2023-02-21T01:15:37;9.62;84.47
65058;HTU21D;51644;51.068;5.860;2023-02-21T01:16:57;9.63;84.44
65058;HTU21D;51644;51.068;5.860;2023-02-21T01:18:15;9.62;84.42
65058;HTU21D;51644;51.068;5.860;2023-02-21T01:19:35;9.64;84.33
65058;HTU21D;51644;51.068;5.860;2023-02-21T01:20:52;9.63;84.38
65058;HTU21D;51644;51.068;5.860;2023-02-21T01:22:22;9.60;84.42
65058;HTU21D;51644;51.068;5.860;2023-02-21T01:23:40;9.61;84.60
65058;HTU21D;51644;51.068;5.860;2023-02-21T01:24:57;9.62;84.52
65058;HTU21D;51644;51.068;5.860;2023-02-21T01:26:14;9.63;84.48
65058;HTU21D;51644;51.068;5.860;2023-02-21T01:27:35;9.63;84.49
65058;HTU21D;51644;51.068;5.860;2023-02-21T01:28:52;9.64;84.52
65058;HTU21D;51644;51.068;5.860;2023-02-21T01:30:10;9.63;84.48
65058;HTU21D;51644;51.068;5.860;2023-02-21T01:31:28;9.63;84.42
65058;HTU21D;51644;51.068;5.860;2023-02-21T01:32:45;9.64;84.42
65058;HTU21D;51644;51.068;5.860;2023-02-21T01:34:02;9.61;84.48
65058;HTU21D;51644;51.068;5.860;2023-02-21T01:35:20;9.61;84.49
65058;HTU21D;51644;51.068;5.860;2023-02-21T01:36:40;9.61;84.45
65058;HTU21D;51644;51.068;5.860;2023-02-21T01:37:57;9.60;84.49
65058;HTU21D;51644;51.068;5.860;2023-02-21T01:39:14;9.63;84.49
65058;HTU21D;51644;51.068;5.860;2023-02-21T01:40:31;9.63;84.55
65058;HTU21D;51644;51.068;5.860;2023-02-21T01:41:48;9.63;84.48
65058;HTU21D;51644;51.068;5.860;2023-02-21T01:43:14;9.63;84.38
65058;HTU21D;51644;51.068;5.860;2023-02-21T01:44:40;9.61;84.33
65058;HTU21D;51644;51.068;5.860;2023-02-21T01:45:58;9.56;84.60
65058;HTU21D;51644;51.068;5.860;2023-02-21T01:47:16;9.52;84.71
65058;HTU21D;51644;51.068;5.860;2023-02-21T01:48:35;9.47;84.81
65058;HTU21D;51644;51.068;5.860;2023-02-21T01:49:53;9.41;85.00
65058;HTU21D;51644;51.068;5.860;2023-02-21T01:51:14;9.39;85.16
65058;HTU21D;51644;51.068;5.860;2023-02-21T01:52:33;9.37;85.09
65058;HTU21D;51644;51.068;5.860;2023-02-21T01:53:52;9.39;85.22
65058;HTU21D;51644;51.068;5.860;2023-02-21T01:55:12;9.38;85.38
65058;HTU21D;51644;51.068;5.860;2023-02-21T01:56:30;9.37;85.34
65058;HTU21D;51644;51.068;5.860;2023-02-21T01:57:50;9.36;85.54
65058;HTU21D;51644;51.068;5.860;2023-02-21T01:59:09;9.38;85.35
65058;HTU21D;51644;51.068;5.860;2023-02-21T02:00:26;9.39;85.43
65058;HTU21D;51644;51.068;5.860;2023-02-21T02:01:52;9.36;85.43
65058;HTU21D;51644;51.068;5.860;2023-02-21T02:03:14;9.39;85.48
65058;HTU21D;51644;51.068;5.860;2023-02-21T02:04:32;9.41;85.37
65058;HTU21D;51644;51.068;5.860;2023-02-21T02:06:02;9.48;85.35
65058;HTU21D;51644;51.068;5.860;2023-02-21T02:08:30;9.45;85.39
65058;HTU21D;51644;51.068;5.860;2023-02-21T02:09:54;9.45;85.22
65058;HTU21D;51644;51.068;5.860;2023-02-21T02:31:27;9.57;84.93
65058;HTU21D;51644;51.068;5.860;2023-02-21T02:35:33;9.56;85.03
65058;HTU21D;51644;51.068;5.860;2023-02-21T02:36:52;9.57;85.00
65058;HTU21D;51644;51.068;5.860;2023-02-21T02:39:39;9.57;85.03
65058;HTU21D;51644;51.068;5.860;2023-02-21T02:41:09;9.59;84.97
65058;HTU21D;51644;51.068;5.860;2023-02-21T02:42:44;9.60;85.00
65058;HTU21D;51644;51.068;5.860;2023-02-21T02:44:03;9.57;85.09
65058;HTU21D;51644;51.068;5.860;2023-02-21T02:45:33;9.49;85.45
65058;HTU21D;51644;51.068;5.860;2023-02-21T02:46:38;9.46;85.29
65058;HTU21D;51644;51.068;5.860;2023-02-21T02:48:05;9.42;85.45
65058;HTU21D;51644;51.068;5.860;2023-02-21T02:49:15;9.41;85.55
65058;HTU21D;51644;51.068;5.860;2023-02-21T02:50:16;9.42;85.55
65058;HTU21D;51644;51.068;5.860;2023-02-21T02:51:25;9.41;85.52
65058;HTU21D;51644;51.068;5.860;2023-02-21T02:52:26;9.39;85.55
65058;HTU21D;51644;51.068;5.860;2023-02-21T02:53:27;9.36;85.81
65058;HTU21D;51644;51.068;5.860;2023-02-21T02:54:28;9.35;85.67
65058;HTU21D;51644;51.068;5.860;2023-02-21T02:55:42;9.35;85.64
65058;HTU21D;51644;51.068;5.860;2023-02-21T02:56:45;9.37;85.62
65058;HTU21D;51644;51.068;5.860;2023-02-21T02:57:45;9.33;85.95
65058;HTU21D;51644;51.068;5.860;2023-02-21T02:58:53;9.34;85.81
65058;HTU21D;51644;51.068;5.860;2023-02-21T03:15:04;9.34;86.04
65058;HTU21D;51644;51.068;5.860;2023-02-21T03:16:19;9.35;85.97
65058;HTU21D;51644;51.068;5.860;2023-02-21T03:17:26;9.36;85.87
65058;HTU21D;51644;51.068;5.860;2023-02-21T03:18:42;9.36;85.94
65058;HTU21D;51644;51.068;5.860;2023-02-21T03:19:47;9.36;85.86
65058;HTU21D;51644;51.068;5.860;2023-02-21T03:20:59;9.34;85.93
65058;HTU21D;51644;51.068;5.860;2023-02-21T03:22:23;9.32;86.19
65058;HTU21D;51644;51.068;5.860;2023-02-21T03:23:33;9.35;85.99
65058;HTU21D;51644;51.068;5.860;2023-02-21T03:24:37;9.36;85.97
65058;HTU21D;51644;51.068;5.860;2023-02-21T03:25:47;9.34;85.80
65058;HTU21D;51644;51.068;5.860;2023-02-21T03:26:54;9.31;86.16
65058;HTU21D;51644;51.068;5.860;2023-02-21T03:28:13;9.33;86.06
65058;HTU21D;51644;51.068;5.860;2023-02-21T03:29:20;9.32;86.14
65058;HTU21D;51644;51.068;5.860;2023-02-21T03:30:29;9.35;86.09
65058;HTU21D;51644;51.068;5.860;2023-02-21T03:31:39;9.32;86.00
65058;HTU21D;51644;51.068;5.860;2023-02-21T03:32:54;9.34;86.00
65058;HTU21D;51644;51.068;5.860;2023-02-21T03:33:55;9.27;86.09
65058;HTU21D;51644;51.068;5.860;2023-02-21T03:35:00;9.23;86.49
65058;HTU21D;51644;51.068;5.860;2023-02-21T03:36:06;9.17;86.60
65058;HTU21D;51644;51.068;5.860;2023-02-21T03:37:10;9.21;86.58
65058;HTU21D;51644;51.068;5.860;2023-02-21T03:38:18;9.17;86.61
65058;HTU21D;51644;51.068;5.860;2023-02-21T03:39:26;9.20;86.56
65058;HTU21D;51644;51.068;5.860;2023-02-21T03:40:32;9.21;86.51
65058;HTU21D;51644;51.068;5.860;2023-02-21T03:41:32;9.20;86.61
65058;HTU21D;51644;51.068;5.860;2023-02-21T03:42:35;9.21;86.51
65058;HTU21D;51644;51.068;5.860;2023-02-21T03:43:34;9.23;86.53
65058;HTU21D;51644;51.068;5.860;2023-02-21T03:44:38;9.19;86.66
65058;HTU21D;51644;51.068;5.860;2023-02-21T03:45:37;9.23;86.54
65058;HTU21D;51644;51.068;5.860;2023-02-21T03:46:45;9.21;86.55
65058;HTU21D;51644;51.068;5.860;2023-02-21T03:48:02;9.19;86.67
65058;HTU21D;51644;51.068;5.860;2023-02-21T03:49:05;9.17;86.74
65058;HTU21D;51644;51.068;5.860;2023-02-21T03:50:07;9.20;86.67
65058;HTU21D;51644;51.068;5.860;2023-02-21T03:51:09;9.21;86.67
65058;HTU21D;51644;51.068;5.860;2023-02-21T03:52:12;9.23;86.67
65058;HTU21D;51644;51.068;5.860;2023-02-21T03:53:12;9.24;86.59
65058;HTU21D;51644;51.068;5.860;2023-02-21T03:54:14;9.25;86.61
65058;HTU21D;51644;51.068;5.860;2023-02-21T03:55:34;9.27;86.46
65058;HTU21D;51644;51.068;5.860;2023-02-21T03:56:39;9.29;86.51
65058;HTU21D;51644;51.068;5.860;2023-02-21T03:57:52;9.27;86.51
65058;HTU21D;51644;51.068;5.860;2023-02-21T03:58:51;9.30;86.41
65058;HTU21D;51644;51.068;5.860;2023-02-21T03:59:51;9.32;86.40
65058;HTU21D;51644;51.068;5.860;2023-02-21T04:00:50;9.32;86.33
65058;HTU21D;51644;51.068;5.860;2023-02-21T04:01:51;9.33;86.23
65058;HTU21D;51644;51.068;5.860;2023-02-21T04:02:56;9.32;86.37
65058;HTU21D;51644;51.068;5.860;2023-02-21T04:04:20;9.32;86.29
65058;HTU21D;51644;51.068;5.860;2023-02-21T04:05:25;9.33;86.16
65058;HTU21D;51644;51.068;5.860;2023-02-21T04:06:28;9.33;86.23
65058;HTU21D;51644;51.068;5.860;2023-02-21T04:10:21;9.31;86.31
65058;HTU21D;51644;51.068;5.860;2023-02-21T04:11:24;9.30;86.48
65058;HTU21D;51644;51.068;5.860;2023-02-21T04:12:36;9.32;86.41
65058;HTU21D;51644;51.068;5.860;2023-02-21T04:13:37;9.32;86.45
65058;HTU21D;51644;51.068;5.860;2023-02-21T04:14:41;9.32;86.53
65058;HTU21D;51644;51.068;5.860;2023-02-21T04:15:52;9.33;86.38
65058;HTU21D;51644;51.068;5.860;2023-02-21T04:16:57;9.26;86.70
65058;HTU21D;51644;51.068;5.860;2023-02-21T04:18:06;9.29;86.57
65058;HTU21D;51644;51.068;5.860;2023-02-21T04:19:14;9.29;86.59
65058;HTU21D;51644;51.068;5.860;2023-02-21T04:20:21;9.29;86.66
65058;HTU21D;51644;51.068;5.860;2023-02-21T04:21:28;9.26;86.71
65058;HTU21D;51644;51.068;5.860;2023-02-21T04:22:31;9.26;86.67
65058;HTU21D;51644;51.068;5.860;2023-02-21T04:23:38;9.26;86.74
65058;HTU21D;51644;51.068;5.860;2023-02-21T04:24:38;9.29;86.67
65058;HTU21D;51644;51.068;5.860;2023-02-21T04:25:50;9.29;86.67
65058;HTU21D;51644;51.068;5.860;2023-02-21T04:27:07;9.31;86.64
65058;HTU21D;51644;51.068;5.860;2023-02-21T04:28:13;9.32;86.58
65058;HTU21D;51644;51.068;5.860;2023-02-21T04:29:24;9.27;86.61
65058;HTU21D;51644;51.068;5.860;2023-02-21T04:30:38;9.27;86.67
65058;HTU21D;51644;51.068;5.860;2023-02-21T04:31:39;9.24;86.71
65058;HTU21D;51644;51.068;5.860;2023-02-21T04:32:42;9.25;86.72
65058;HTU21D;51644;51.068;5.860;2023-02-21T04:33:45;9.25;86.80
65058;HTU21D;51644;51.068;5.860;2023-02-21T04:34:48;9.27;86.80
65058;HTU21D;51644;51.068;5.860;2023-02-21T04:35:49;9.29;86.73
65058;HTU21D;51644;51.068;5.860;2023-02-21T04:36:59;9.33;86.58
65058;HTU21D;51644;51.068;5.860;2023-02-21T04:38:01;9.32;86.42
65058;HTU21D;51644;51.068;5.860;2023-02-21T04:39:08;9.33;86.48
65058;HTU21D;51644;51.068;5.860;2023-02-21T04:40:11;9.35;86.37
65058;HTU21D;51644;51.068;5.860;2023-02-21T04:41:10;9.35;86.37
65058;HTU21D;51644;51.068;5.860;2023-02-21T04:42:15;9.35;86.31
65058;HTU21D;51644;51.068;5.860;2023-02-21T04:43:14;9.35;86.33
65058;HTU21D;51644;51.068;5.860;2023-02-21T04:44:18;9.34;86.25
65058;HTU21D;51644;51.068;5.860;2023-02-21T04:45:17;9.32;86.38
65058;HTU21D;51644;51.068;5.860;2023-02-21T04:46:28;9.35;86.35
65058;HTU21D;51644;51.068;5.860;2023-02-21T04:47:27;9.36;86.35
65058;HTU21D;51644;51.068;5.860;2023-02-21T04:48:34;9.34;86.42
65058;HTU21D;51644;51.068;5.860;2023-02-21T04:49:42;9.36;86.29
65058;HTU21D;51644;51.068;5.860;2023-02-21T04:51:05;9.34;86.33
65058;HTU21D;51644;51.068;5.860;2023-02-21T04:52:12;9.35;86.29
65058;HTU21D;51644;51.068;5.860;2023-02-21T04:53:25;9.33;86.26
65058;HTU21D;51644;51.068;5.860;2023-02-21T04:58:07;9.31;85.96
65058;HTU21D;51644;51.068;5.860;2023-02-21T04:59:08;9.29;86.22
65058;HTU21D;51644;51.068;5.860;2023-02-21T05:00:07;9.26;86.08
65058;HTU21D;51644;51.068;5.860;2023-02-21T05:01:06;9.26;86.20
65058;HTU21D;51644;51.068;5.860;2023-02-21T05:02:21;9.21;86.28
65058;HTU21D;51644;51.068;5.860;2023-02-21T05:03:24;9.20;86.36
65058;HTU21D;51644;51.068;5.860;2023-02-21T05:04:24;9.21;86.38
65058;HTU21D;51644;51.068;5.860;2023-02-21T05:05:25;9.20;86.36
65058;HTU21D;51644;51.068;5.860;2023-02-21T05:06:28;9.19;86.36
65058;HTU21D;51644;51.068;5.860;2023-02-21T05:07:29;9.11;86.29
65058;HTU21D;51644;51.068;5.860;2023-02-21T05:08:28;9.14;86.51
65058;HTU21D;51644;51.068;5.860;2023-02-21T05:09:30;9.14;86.45
65058;HTU21D;51644;51.068;5.860;2023-02-21T05:10:29;9.15;86.56
65058;HTU21D;51644;51.068;5.860;2023-02-21T05:11:35;9.16;86.51
65058;HTU21D;51644;51.068;5.860;2023-02-21T05:12:34;9.12;86.24
65058;HTU21D;51644;51.068;5.860;2023-02-21T05:13:34;9.14;86.43
65058;HTU21D;51644;51.068;5.860;2023-02-21T05:14:39;9.08;86.67
65058;HTU21D;51644;51.068;5.860;2023-02-21T05:15:44;9.07;86.69
65058;HTU21D;51644;51.068;5.860;2023-02-21T05:16:44;9.06;86.67
65058;HTU21D;51644;51.068;5.860;2023-02-21T05:17:46;9.08;86.70
65058;HTU21D;51644;51.068;5.860;2023-02-21T05:18:46;9.05;86.74
65058;HTU21D;51644;51.068;5.860;2023-02-21T05:19:46;9.07;86.86
65058;HTU21D;51644;51.068;5.860;2023-02-21T05:20:49;9.02;86.84
65058;HTU21D;51644;51.068;5.860;2023-02-21T05:21:48;9.04;86.80
65058;HTU21D;51644;51.068;5.860;2023-02-21T05:22:48;9.02;86.83
65058;HTU21D;51644;51.068;5.860;2023-02-21T05:23:47;8.98;87.07
65058;HTU21D;51644;51.068;5.860;2023-02-21T05:25:16;8.98;86.85
65058;HTU21D;51644;51.068;5.860;2023-02-21T05:26:33;8.98;87.03
65058;HTU21D;51644;51.068;5.860;2023-02-21T05:27:37;8.94;87.00
65058;HTU21D;51644;51.068;5.860;2023-02-21T05:28:49;8.94;87.25
65058;HTU21D;51644;51.068;5.860;2023-02-21T05:29:49;8.95;87.12
65058;HTU21D;51644;51.068;5.860;2023-02-21T05:30:49;8.95;87.18
65058;HTU21D;51644;51.068;5.860;2023-02-21T05:31:47;8.96;87.10
65058;HTU21D;51644;51.068;5.860;2023-02-21T05:32:50;8.96;87.13
65058;HTU21D;51644;51.068;5.860;2023-02-21T05:33:49;8.96;87.20
65058;HTU21D;51644;51.068;5.860;2023-02-21T05:34:48;8.98;87.11
65058;HTU21D;51644;51.068;5.860;2023-02-21T05:35:47;8.96;87.24
65058;HTU21D;51644;51.068;5.860;2023-02-21T05:36:46;8.96;87.13
65058;HTU21D;51644;51.068;5.860;2023-02-21T05:37:45;8.95;87.16
65058;HTU21D;51644;51.068;5.860;2023-02-21T05:38:45;8.95;87.13
65058;HTU21D;51644;51.068;5.860;2023-02-21T05:39:44;8.97;87.06
65058;HTU21D;51644;51.068;5.860;2023-02-21T05:40:44;8.97;87.07
65058;HTU21D;51644;51.068;5.860;2023-02-21T05:41:47;8.98;87.02
65058;HTU21D;51644;51.068;5.860;2023-02-21T05:42:46;8.97;87.11
65058;HTU21D;51644;51.068;5.860;2023-02-21T05:43:52;8.98;87.13
65058;HTU21D;51644;51.068;5.860;2023-02-21T05:45:10;9.01;87.06
65058;HTU21D;51644;51.068;5.860;2023-02-21T05:46:36;9.04;86.96
65058;HTU21D;51644;51.068;5.860;2023-02-21T05:47:36;9.06;86.96
65058;HTU21D;51644;51.068;5.860;2023-02-21T05:48:34;9.08;86.91
65058;HTU21D;51644;51.068;5.860;2023-02-21T05:49:33;9.06;87.08
65058;HTU21D;51644;51.068;5.860;2023-02-21T05:50:33;9.06;87.01
65058;HTU21D;51644;51.068;5.860;2023-02-21T05:51:51;9.07;86.81
65058;HTU21D;51644;51.068;5.860;2023-02-21T05:52:52;9.00;87.35
65058;HTU21D;51644;51.068;5.860;2023-02-21T05:53:51;9.01;87.07
65058;HTU21D;51644;51.068;5.860;2023-02-21T05:54:50;9.00;87.07
65058;HTU21D;51644;51.068;5.860;2023-02-21T05:55:49;8.97;87.27
65058;HTU21D;51644;51.068;5.860;2023-02-21T05:56:49;8.92;87.48
65058;HTU21D;51644;51.068;5.860;2023-02-21T05:57:51;8.92;87.58
65058;HTU21D;51644;51.068;5.860;2023-02-21T05:58:50;8.90;87.62
65058;HTU21D;51644;51.068;5.860;2023-02-21T05:59:49;8.90;87.61
65058;HTU21D;51644;51.068;5.860;2023-02-21T06:00:50;8.89;87.64
65058;HTU21D;51644;51.068;5.860;2023-02-21T06:01:50;8.90;87.80
65058;HTU21D;51644;51.068;5.860;2023-02-21T06:02:50;8.92;87.78
65058;HTU21D;51644;51.068;5.860;2023-02-21T06:03:49;8.92;87.86
65058;HTU21D;51644;51.068;5.860;2023-02-21T06:04:48;8.91;87.96
65058;HTU21D;51644;51.068;5.860;2023-02-21T06:05:47;8.91;88.00
65058;HTU21D;51644;51.068;5.860;2023-02-21T06:06:49;8.91;87.99
65058;HTU21D;51644;51.068;5.860;2023-02-21T06:07:50;8.91;88.02
65058;HTU21D;51644;51.068;5.860;2023-02-21T06:08:49;8.93;88.01
65058;HTU21D;51644;51.068;5.860;2023-02-21T06:09:48;8.94;87.97
65058;HTU21D;51644;51.068;5.860;2023-02-21T06:10:47;8.95;88.00
65058;HTU21D;51644;51.068;5.860;2023-02-21T06:11:55;8.95;88.04
65058;HTU21D;51644;51.068;5.860;2023-02-21T06:12:57;8.97;88.01
65058;HTU21D;51644;51.068;5.860;2023-02-21T06:13:58;8.94;88.12
65058;HTU21D;51644;51.068;5.860;2023-02-21T06:14:57;8.95;88.06
65058;HTU21D;51644;51.068;5.860;2023-02-21T06:15:56;8.95;88.02
65058;HTU21D;51644;51.068;5.860;2023-02-21T06:16:55;8.91;88.21
65058;HTU21D;51644;51.068;5.860;2023-02-21T06:17:53;8.95;88.09
65058;HTU21D;51644;51.068;5.860;2023-02-21T06:18:55;8.97;88.09
65058;HTU21D;51644;51.068;5.860;2023-02-21T06:19:57;9.01;88.03
65058;HTU21D;51644;51.068;5.860;2023-02-21T06:20:56;9.04;87.93
65058;HTU21D;51644;51.068;5.860;2023-02-21T06:21:57;9.07;87.80
65058;HTU21D;51644;51.068;5.860;2023-02-21T06:22:59;9.09;87.70
65058;HTU21D;51644;51.068;5.860;2023-02-21T06:23:58;9.10;87.65
65058;HTU21D;51644;51.068;5.860;2023-02-21T06:24:57;9.14;87.55
65058;HTU21D;51644;51.068;5.860;2023-02-21T06:25:55;9.15;87.46
65058;HTU21D;51644;51.068;5.860;2023-02-21T06:26:54;9.14;87.44
65058;HTU21D;51644;51.068;5.860;2023-02-21T06:27:52;9.15;87.39
65058;HTU21D;51644;51.068;5.860;2023-02-21T06:28:51;9.15;87.35
65058;HTU21D;51644;51.068;5.860;2023-02-21T06:29:50;9.15;87.38
65058;HTU21D;51644;51.068;5.860;2023-02-21T06:30:48;9.15;87.37
65058;HTU21D;51644;51.068;5.860;2023-02-21T06:31:47;9.17;87.41
65058;HTU21D;51644;51.068;5.860;2023-02-21T06:32:46;9.17;87.38
65058;HTU21D;51644;51.068;5.860;2023-02-21T06:33:45;9.16;87.32
65058;HTU21D;51644;51.068;5.860;2023-02-21T06:34:47;9.12;87.45
65058;HTU21D;51644;51.068;5.860;2023-02-21T06:35:45;9.11;87.50
65058;HTU21D;51644;51.068;5.860;2023-02-21T06:36:44;9.08;87.60
65058;HTU21D;51644;51.068;5.860;2023-02-21T06:37:42;9.06;87.70
65058;HTU21D;51644;51.068;5.860;2023-02-21T06:38:44;9.02;87.77
65058;HTU21D;51644;51.068;5.860;2023-02-21T06:39:43;9.01;87.99
65058;HTU21D;51644;51.068;5.860;2023-02-21T06:40:42;9.00;88.11
65058;HTU21D;51644;51.068;5.860;2023-02-21T06:41:41;9.01;88.22
65058;HTU21D;51644;51.068;5.860;2023-02-21T06:42:40;9.01;88.22
65058;HTU21D;51644;51.068;5.860;2023-02-21T06:43:38;9.02;88.23
65058;HTU21D;51644;51.068;5.860;2023-02-21T06:44:37;9.01;88.25
65058;HTU21D;51644;51.068;5.860;2023-02-21T06:45:35;8.98;88.23
65058;HTU21D;51644;51.068;5.860;2023-02-21T06:46:34;9.01;88.22
65058;HTU21D;51644;51.068;5.860;2023-02-21T06:47:35;8.96;88.30
65058;HTU21D;51644;51.068;5.860;2023-02-21T06:48:33;8.96;88.35
65058;HTU21D;51644;51.068;5.860;2023-02-21T06:49:32;8.92;88.39
65058;HTU21D;51644;51.068;5.860;2023-02-21T06:50:31;8.90;88.56
65058;HTU21D;51644;51.068;5.860;2023-02-21T06:51:34;8.90;88.58
65058;HTU21D;51644;51.068;5.860;2023-02-21T06:52:32;8.90;88.66
65058;HTU21D;51644;51.068;5.860;2023-02-21T06:53:31;8.92;88.72
65058;HTU21D;51644;51.068;5.860;2023-02-21T06:54:29;8.92;88.67
65058;HTU21D;51644;51.068;5.860;2023-02-21T06:55:28;8.89;88.72
65058;HTU21D;51644;51.068;5.860;2023-02-21T06:56:27;8.90;88.67
65058;HTU21D;51644;51.068;5.860;2023-02-21T06:57:25;8.90;88.67
65058;HTU21D;51644;51.068;5.860;2023-02-21T06:58:24;8.89;88.85
65058;HTU21D;51644;51.068;5.860;2023-02-21T06:59:23;8.87;88.83
65058;HTU21D;51644;51.068;5.860;2023-02-21T07:00:21;8.85;88.94
65058;HTU21D;51644;51.068;5.860;2023-02-21T07:01:20;8.80;89.07
65058;HTU21D;51644;51.068;5.860;2023-02-21T07:02:20;8.77;89.36
65058;HTU21D;51644;51.068;5.860;2023-02-21T07:03:18;8.73;89.31
65058;HTU21D;51644;51.068;5.860;2023-02-21T07:04:17;8.72;89.41
65058;HTU21D;51644;51.068;5.860;2023-02-21T07:05:15;8.70;89.57
65058;HTU21D;51644;51.068;5.860;2023-02-21T07:06:14;8.71;89.50
65058;HTU21D;51644;51.068;5.860;2023-02-21T07:07:14;8.70;89.53
65058;HTU21D;51644;51.068;5.860;2023-02-21T07:08:12;8.71;89.62
65058;HTU21D;51644;51.068;5.860;2023-02-21T07:09:11;8.70;89.67
65058;HTU21D;51644;51.068;5.860;2023-02-21T07:10:10;8.71;89.65
65058;HTU21D;51644;51.068;5.860;2023-02-21T07:11:10;8.71;89.64
65058;HTU21D;51644;51.068;5.860;2023-02-21T07:12:09;8.70;89.55
65058;HTU21D;51644;51.068;5.860;2023-02-21T07:13:08;8.70;89.85
65058;HTU21D;51644;51.068;5.860;2023-02-21T07:14:06;8.70;89.88
65058;HTU21D;51644;51.068;5.860;2023-02-21T07:15:06;8.68;89.97
65058;HTU21D;51644;51.068;5.860;2023-02-21T07:16:05;8.68;89.82
65058;HTU21D;51644;51.068;5.860;2023-02-21T07:17:03;8.67;89.90
65058;HTU21D;51644;51.068;5.860;2023-02-21T07:18:02;8.72;89.86
65058;HTU21D;51644;51.068;5.860;2023-02-21T07:19:01;8.71;89.95
65058;HTU21D;51644;51.068;5.860;2023-02-21T07:19:59;8.72;89.92
65058;HTU21D;51644;51.068;5.860;2023-02-21T07:20:58;8.76;89.79
65058;HTU21D;51644;51.068;5.860;2023-02-21T07:21:57;8.79;89.74
65058;HTU21D;51644;51.068;5.860;2023-02-21T07:22:56;8.75;89.92
65058;HTU21D;51644;51.068;5.860;2023-02-21T07:23:55;8.81;89.72
65058;HTU21D;51644;51.068;5.860;2023-02-21T07:24:55;8.83;89.64
65058;HTU21D;51644;51.068;5.860;2023-02-21T07:25:53;8.86;89.56
65058;HTU21D;51644;51.068;5.860;2023-02-21T07:26:52;8.89;89.34
65058;HTU21D;51644;51.068;5.860;2023-02-21T07:27:50;8.91;89.28
65058;HTU21D;51644;51.068;5.860;2023-02-21T07:28:52;8.93;89.12
65058;HTU21D;51644;51.068;5.860;2023-02-21T07:29:50;8.96;88.98
65058;HTU21D;51644;51.068;5.860;2023-02-21T07:30:49;9.02;88.80
65058;HTU21D;51644;51.068;5.860;2023-02-21T07:31:48;9.03;88.70
65058;HTU21D;51644;51.068;5.860;2023-02-21T07:32:46;9.06;88.54
65058;HTU21D;51644;51.068;5.860;2023-02-21T07:33:45;9.09;88.45
65058;HTU21D;51644;51.068;5.860;2023-02-21T07:34:44;9.15;88.13
65058;HTU21D;51644;51.068;5.860;2023-02-21T07:35:42;9.10;88.23
65058;HTU21D;51644;51.068;5.860;2023-02-21T07:36:41;9.11;88.16
65058;HTU21D;51644;51.068;5.860;2023-02-21T07:37:40;9.16;88.01
65058;HTU21D;51644;51.068;5.860;2023-02-21T07:38:38;9.18;87.97
65058;HTU21D;51644;51.068;5.860;2023-02-21T07:39:37;9.15;88.05
65058;HTU21D;51644;51.068;5.860;2023-02-21T07:40:35;9.16;88.06
65058;HTU21D;51644;51.068;5.860;2023-02-21T07:41:34;9.16;88.00
65058;HTU21D;51644;51.068;5.860;2023-02-21T07:42:33;9.17;87.83
65058;HTU21D;51644;51.068;5.860;2023-02-21T07:43:32;9.18;87.86
65058;HTU21D;51644;51.068;5.860;2023-02-21T07:44:33;9.16;87.99
65058;HTU21D;51644;51.068;5.860;2023-02-21T07:45:32;9.17;87.89
65058;HTU21D;51644;51.068;5.860;2023-02-21T07:46:30;9.20;87.78
65058;HTU21D;51644;51.068;5.860;2023-02-21T07:47:29;9.18;87.86
65058;HTU21D;51644;51.068;5.860;2023-02-21T07:48:28;9.23;87.70
65058;HTU21D;51644;51.068;5.860;2023-02-21T07:49:26;9.24;87.67
65058;HTU21D;51644;51.068;5.860;2023-02-21T07:50:25;9.23;87.54
65058;HTU21D;51644;51.068;5.860;2023-02-21T07:51:27;9.24;87.59
65058;HTU21D;51644;51.068;5.860;2023-02-21T07:52:26;9.22;87.55